Time;durP1;ratioP1;P1;durP2;ratioP2;P2;SDS_P1;SDS_P2;PMS_P1;PMS_P2;Temp;Humidity;BMP_temperature;BMP_pressure;BME280_temperature;BME280_humidity;BME280_pressure;Samples;Min_cycle;Max_cycle;Signal;HPM_P1;HPM_P2
2021/08/31 00:00:37;;;;;;;5.97;2.67;;;;;;;26.47;51.00;101112.34;1768310;80;21534;-49
2021/08/31 00:03:04;;;;;;;3.12;2.20;;;;;;;26.45;51.06;101115.62;1759473;80;21026;-49
2021/08/31 00:05:31;;;;;;;1.87;1.77;;;;;;;26.46;51.08;101124.00;1775344;80;21094;-49
2021/08/31 00:07:58;;;;;;;4.55;2.20;;;;;;;26.46;51.01;101124.00;1774147;80;21531;-48
2021/08/31 00:10:26;;;;;;;4.65;2.58;;;;;;;26.43;50.99;101125.57;1776614;80;21533;-49
2021/08/31 00:12:53;;;;;;;2.72;2.45;;;;;;;26.40;51.09;101132.48;1768518;80;21006;-50
2021/08/31 00:15:20;;;;;;;2.22;2.02;;;;;;;26.40;51.09;101132.48;1769009;80;21003;-49
2021/08/31 00:17:48;;;;;;;4.47;2.60;;;;;;;26.36;50.97;101131.03;1765369;80;21572;-49
2021/08/31 00:20:15;;;;;;;2.60;2.40;;;;;;;26.35;51.12;101149.37;1762948;80;21062;-49
2021/08/31 00:22:42;;;;;;;2.60;2.40;;;;;;;26.35;51.12;101149.37;1748377;80;21043;-48
2021/08/31 00:25:10;;;;;;;3.55;2.35;;;;;;;26.30;51.38;101145.73;1738416;80;21050;-49
2021/08/31 00:27:38;;;;;;;2.70;1.90;;;;;;;26.29;51.56;101145.86;1758072;80;21644;-49
2021/08/31 00:30:07;;;;;;;5.92;2.72;;;;;;;26.26;51.57;101152.77;1758043;80;21483;-49
2021/08/31 00:32:33;;;;;;;2.33;2.00;;;;;;;26.26;51.57;101152.77;1773194;80;21058;-50
2021/08/31 00:35:00;;;;;;;3.33;2.27;;;;;;;26.26;51.90;101151.43;1767256;80;21054;-50
2021/08/31 00:37:27;;;;;;;3.40;2.30;;;;;;;26.21;52.09;101149.16;1752328;80;21098;-49
2021/08/31 00:39:56;;;;;;;3.05;2.10;;;;;;;26.24;52.18;101154.23;1754329;80;21569;-49
2021/08/31 00:42:22;;;;;;;3.27;2.20;;;;;;;26.23;52.03;101159.70;1757164;80;21073;-49
2021/08/31 00:44:49;;;;;;;3.12;2.10;;;;;;;26.22;52.34;101158.84;1756015;80;21015;-49
2021/08/31 00:47:17;;;;;;;3.37;2.55;;;;;;;26.18;52.77;101154.73;1745149;80;21508;-49
2021/08/31 00:49:44;;;;;;;5.28;3.55;;;;;;;26.21;52.13;101157.16;1749128;80;21086;-50
2021/08/31 00:52:11;;;;;;;5.12;3.22;;;;;;;26.21;52.13;101157.16;1764877;80;21110;-49
2021/08/31 00:54:38;;;;;;;7.80;2.60;;;;;;;26.20;52.05;101155.93;1683785;83;21161;-50
2021/08/31 00:57:06;;;;;;;5.00;2.62;;;;;;;26.21;51.87;101165.64;1680465;83;21143;-49
2021/08/31 00:59:34;;;;;;;3.10;2.70;;;;;;;26.16;51.76;101170.01;1702182;83;21498;-50
2021/08/31 01:02:01;;;;;;;4.05;2.85;;;;;;;26.16;51.76;101170.01;1774341;80;21061;-49
2021/08/31 01:04:29;;;;;;;3.65;3.35;;;;;;;26.08;51.71;101168.92;1770062;80;21006;-49
2021/08/31 01:06:56;;;;;;;5.00;3.42;;;;;;;26.08;51.71;101168.92;1751822;80;21491;-50
2021/08/31 01:09:26;;;;;;;5.10;3.83;;;;;;;26.07;51.69;101175.20;1767160;80;21037;-50
2021/08/31 01:11:58;;;;;;;6.05;3.90;;;;;;;26.05;51.77;101178.48;1771485;80;21106;-50
2021/08/31 01:14:26;;;;;;;5.17;3.75;;;;;;;26.01;51.45;101176.52;1679841;83;21046;-49
2021/08/31 01:16:54;;;;;;;6.55;3.45;;;;;;;25.98;51.38;101173.25;1688364;83;21121;-50
2021/08/31 01:19:30;;;;;;;7.00;3.40;;;;;;;25.95;51.30;101176.15;1664047;85;21157;-49
2021/08/31 01:22:05;;;;;;;4.42;3.33;;;;;;;25.91;51.24;101172.03;1678663;84;21084;-50
2021/08/31 01:24:32;;;;;;;3.87;3.42;;;;;;;25.89;51.31;101173.48;1676028;84;21050;-50
2021/08/31 01:27:00;;;;;;;5.53;3.22;;;;;;;25.86;51.27;101183.56;1679508;84;21521;-49
2021/08/31 01:29:28;;;;;;;3.87;3.40;;;;;;;25.82;51.26;101182.45;1677555;84;21057;-49
2021/08/31 01:31:55;;;;;;;3.98;3.05;;;;;;;25.80;51.21;101184.39;1683116;84;21046;-50
2021/08/31 01:34:23;;;;;;;6.17;3.45;;;;;;;25.77;51.20;101184.64;1673517;85;21562;-49
2021/08/31 01:36:50;;;;;;;8.23;3.80;;;;;;;25.73;51.22;101183.19;1631438;86;21248;-50
2021/08/31 01:39:16;;;;;;;4.37;3.22;;;;;;;25.70;51.14;101182.55;1674751;84;21071;-49
2021/08/31 01:41:43;;;;;;;3.85;3.15;;;;;;;25.66;51.17;101181.95;1697720;83;21054;-49
2021/08/31 01:44:10;;;;;;;3.87;3.40;;;;;;;25.62;51.12;101185.83;1683702;83;21222;-49
2021/08/31 01:46:37;;;;;;;7.50;3.47;;;;;;;25.57;51.07;101185.35;1680357;83;21058;-49
2021/08/31 01:49:04;;;;;;;4.97;3.90;;;;;;;25.57;51.07;101185.35;1692736;83;21069;-49
2021/08/31 01:51:30;;;;;;;5.58;3.75;;;;;;;25.53;51.05;101181.20;1670989;85;21125;-49
2021/08/31 01:53:58;;;;;;;4.67;3.80;;;;;;;25.51;51.14;101190.30;1652328;85;21625;-49
2021/08/31 01:56:25;;;;;;;6.60;4.42;;;;;;;25.38;51.69;101181.03;1684619;83;21063;-49
2021/08/31 01:58:52;;;;;;;4.67;4.00;;;;;;;25.38;51.69;101181.03;1693862;83;21562;-48
2021/08/31 02:01:19;;;;;;;5.53;3.95;;;;;;;25.36;51.68;101180.30;1688623;83;21099;-49
2021/08/31 02:03:46;;;;;;;5.78;4.10;;;;;;;25.34;51.84;101174.71;1678393;83;21082;-49
2021/08/31 02:06:13;;;;;;;6.25;4.33;;;;;;;25.30;51.97;101176.77;1654500;85;21098;-49
2021/08/31 02:08:39;;;;;;;6.05;4.25;;;;;;;25.28;52.07;101180.51;1678986;84;21054;-49
2021/08/31 02:11:07;;;;;;;5.75;3.35;;;;;;;25.24;52.30;101177.72;1720388;80;21151;-49
2021/08/31 02:13:34;;;;;;;6.90;3.70;;;;;;;25.21;52.50;101174.80;1777708;80;21027;-50
2021/08/31 02:16:01;;;;;;;8.55;5.10;;;;;;;25.20;52.82;101177.11;1751530;80;21051;-49
2021/08/31 02:18:28;;;;;;;8.53;4.72;;;;;;;25.19;53.10;101178.06;1760713;80;21102;-49
2021/08/31 02:20:55;;;;;;;6.62;3.67;;;;;;;25.16;53.41;101178.31;1756035;80;21518;-49
2021/08/31 02:23:23;;;;;;;8.78;3.85;;;;;;;25.16;53.74;101176.97;1756507;80;21537;-49
2021/08/31 02:25:50;;;;;;;3.92;3.17;;;;;;;25.16;53.98;101182.30;1749667;80;21039;-49
2021/08/31 02:28:17;;;;;;;7.70;3.75;;;;;;;25.16;54.10;101186.30;1750542;80;21082;-49
2021/08/31 02:30:44;;;;;;;6.97;4.10;;;;;;;25.16;54.26;101190.29;1770741;80;21070;-49
2021/08/31 02:33:11;;;;;;;7.78;4.10;;;;;;;25.16;54.35;101184.97;1763431;80;21526;-49
2021/08/31 02:35:38;;;;;;;5.53;3.75;;;;;;;25.15;54.03;101191.24;1764156;80;21570;-49
2021/08/31 02:38:05;;;;;;;4.75;3.70;;;;;;;25.19;53.49;101194.52;1737170;81;21027;-49
2021/08/31 02:40:32;;;;;;;5.53;3.95;;;;;;;25.15;53.22;101191.24;1777951;80;21081;-49
2021/08/31 02:42:58;;;;;;;3.95;3.37;;;;;;;25.14;53.24;101194.89;1766445;80;20967;-48
2021/08/31 02:45:25;;;;;;;7.00;2.90;;;;;;;25.15;53.09;101193.91;1753222;80;21050;-49
2021/08/31 02:47:52;;;;;;;4.75;3.02;;;;;;;25.12;52.95;101191.48;1750888;80;21036;-49
2021/08/31 02:50:19;;;;;;;3.40;3.10;;;;;;;25.10;52.88;101196.05;1761183;80;21050;-49
2021/08/31 02:52:48;;;;;;;4.15;3.10;;;;;;;25.07;52.65;101190.97;1770227;80;21062;-49
2021/08/31 02:55:15;;;;;;;4.08;3.22;;;;;;;25.02;52.66;101190.45;1762011;80;21015;-49
2021/08/31 02:57:42;;;;;;;4.28;3.35;;;;;;;24.99;52.67;101196.02;1768489;80;21007;-49
2021/08/31 03:00:17;;;;;;;5.72;4.12;;;;;;;24.96;52.66;101194.91;1764956;80;21006;-49
2021/08/31 03:02:39;;;;;;;5.17;4.17;;;;;;;24.95;52.57;101201.20;1741517;80;21015;-49
2021/08/31 03:05:07;;;;;;;9.60;5.12;;;;;;;24.90;52.52;101196.69;1748347;80;21046;-49
2021/08/31 03:07:34;;;;;;;7.70;4.67;;;;;;;24.88;52.33;101201.28;1760059;80;21070;-49
2021/08/31 03:10:02;;;;;;;10.70;4.87;;;;;;;24.86;52.06;101205.88;1758533;80;21077;-48
2021/08/31 03:12:30;;;;;;;4.08;3.67;;;;;;;24.82;51.91;101207.06;1752181;80;21070;-49
2021/08/31 03:14:58;;;;;;;4.08;3.40;;;;;;;24.78;51.96;101210.91;1749504;81;21495;-49
2021/08/31 03:17:25;;;;;;;8.03;4.30;;;;;;;24.74;51.91;101209.44;1749415;80;21065;-48
2021/08/31 03:19:53;;;;;;;3.55;3.10;;;;;;;24.71;52.04;101212.31;1751946;80;21011;-49
2021/08/31 03:22:20;;;;;;;8.48;3.77;;;;;;;24.68;52.12;101217.84;1746272;80;21019;-49
2021/08/31 03:24:47;;;;;;;4.97;3.47;;;;;;;24.66;52.15;101215.77;1755292;80;21010;-49
2021/08/31 03:27:14;;;;;;;7.75;3.75;;;;;;;24.64;52.38;101217.70;1762444;80;21034;-50
2021/08/31 03:29:41;;;;;;;8.15;4.40;;;;;;;24.60;52.59;101221.07;1754094;80;21046;-49
2021/08/31 03:32:08;;;;;;;5.53;4.00;;;;;;;24.59;52.75;101227.81;1747821;81;21048;-49
2021/08/31 03:34:35;;;;;;;7.47;3.80;;;;;;;24.58;52.95;101227.45;1750581;80;20999;-49
2021/08/31 03:37:02;;;;;;;7.08;4.28;;;;;;;24.57;53.17;101226.59;1772778;80;21022;-49
2021/08/31 03:39:29;;;;;;;15.63;4.55;;;;;;;24.57;53.48;101228.40;1771833;80;21047;-49
2021/08/31 03:41:56;;;;;;;8.60;4.03;;;;;;;24.58;53.59;101236.77;1767996;80;21089;-49
2021/08/31 03:44:23;;;;;;;5.60;3.40;;;;;;;24.57;53.70;101239.05;1774654;80;21521;-49
2021/08/31 03:46:50;;;;;;;15.00;4.45;;;;;;;24.55;53.97;101236.50;1774909;80;21077;-49
2021/08/31 03:49:17;;;;;;;6.83;4.15;;;;;;;24.55;54.24;101240.97;1767362;80;21486;-49
2021/08/31 03:51:44;;;;;;;8.70;4.25;;;;;;;24.54;54.45;101244.60;1759789;80;21074;-49
2021/08/31 03:54:12;;;;;;;5.90;4.20;;;;;;;24.55;54.82;101252.94;1770148;80;21549;-49
2021/08/31 03:56:38;;;;;;;6.37;4.20;;;;;;;24.55;54.97;101243.63;1765991;80;21059;-50
2021/08/31 03:59:05;;;;;;;7.47;4.35;;;;;;;24.57;55.17;101239.05;1769046;80;21466;-49
2021/08/31 04:01:32;;;;;;;11.43;4.33;;;;;;;24.59;55.40;101245.11;1768582;80;21042;-48
2021/08/31 04:03:59;;;;;;;7.60;4.17;;;;;;;24.61;55.54;101243.19;1770410;80;21109;-49
2021/08/31 04:06:26;;;;;;;16.15;3.95;;;;;;;24.63;55.77;101241.27;1749740;80;21066;-51
2021/08/31 04:08:54;;;;;;;7.12;3.62;;;;;;;24.67;55.96;101245.39;1744308;80;21035;-48
2021/08/31 04:11:20;;;;;;;13.43;3.90;;;;;;;24.70;56.07;101248.71;1748198;80;21019;-50
2021/08/31 04:13:50;;;;;;;8.73;3.60;;;;;;;24.74;56.11;101252.02;1780329;80;21545;-50
2021/08/31 04:16:17;;;;;;;8.33;4.10;;;;;;;24.79;56.17;101249.89;1777208;80;21050;-48
2021/08/31 04:18:44;;;;;;;6.50;3.67;;;;;;;24.82;56.15;101249.65;1762810;80;21506;-48
2021/08/31 04:21:12;;;;;;;6.10;3.70;;;;;;;24.85;56.16;101254.77;1757140;80;21062;-48
2021/08/31 04:23:40;;;;;;;9.93;3.62;;;;;;;24.88;56.04;101259.84;1757617;80;21035;-48
2021/08/31 04:26:07;;;;;;;4.60;3.30;;;;;;;24.92;55.92;101259.98;1779166;80;21034;-49
2021/08/31 04:28:34;;;;;;;3.95;3.40;;;;;;;24.94;55.83;101261.59;1769924;80;21112;-50
2021/08/31 04:31:01;;;;;;;5.03;3.50;;;;;;;24.98;55.80;101259.54;1765544;80;21026;-50
2021/08/31 04:33:28;;;;;;;5.17;4.03;;;;;;;25.01;55.85;101263.32;1754926;80;21071;-50
2021/08/31 04:35:55;;;;;;;4.25;3.85;;;;;;;25.03;55.80;101264.06;1742279;80;21082;-48
2021/08/31 04:38:22;;;;;;;6.78;3.77;;;;;;;25.05;55.83;101264.80;1777534;80;20970;-50
2021/08/31 04:40:49;;;;;;;7.67;4.72;;;;;;;25.08;55.86;101263.22;1771629;80;21026;-48
2021/08/31 04:43:16;;;;;;;6.72;3.83;;;;;;;25.16;55.76;101260.86;1779868;80;21042;-48
2021/08/31 04:45:44;;;;;;;6.85;3.33;;;;;;;25.18;55.67;101270.92;1771937;80;21069;-48
2021/08/31 04:48:11;;;;;;;6.00;3.83;;;;;;;25.20;55.66;101262.81;1741481;80;21061;-49
2021/08/31 04:50:38;;;;;;;4.20;3.62;;;;;;;25.22;55.64;101264.41;1769965;80;21042;-50
2021/08/31 04:53:06;;;;;;;4.17;3.62;;;;;;;25.24;55.59;101259.81;1769382;80;21025;-50
2021/08/31 04:55:33;;;;;;;6.20;4.20;;;;;;;25.26;55.60;101259.21;1753334;80;21026;-49
2021/08/31 04:58:01;;;;;;;6.72;3.98;;;;;;;25.28;55.56;101261.28;1772487;80;21541;-49
2021/08/31 05:00:27;;;;;;;6.62;4.25;;;;;;;25.28;55.65;101269.27;1750493;80;20983;-49
2021/08/31 05:02:56;;;;;;;4.97;3.80;;;;;;;25.34;55.59;101269.28;1758175;80;21022;-49
2021/08/31 05:05:24;;;;;;;6.62;4.28;;;;;;;25.39;55.43;101269.30;1752734;80;21027;-50
2021/08/31 05:07:51;;;;;;;5.62;4.33;;;;;;;25.42;55.45;101274.44;1777083;80;21497;-50
2021/08/31 05:10:20;;;;;;;8.13;3.75;;;;;;;25.49;55.26;101275.66;1784323;80;21022;-50
2021/08/31 05:12:46;;;;;;;6.53;5.03;;;;;;;25.52;55.16;101284.77;1766825;80;21007;-49
2021/08/31 05:15:13;;;;;;;5.97;4.00;;;;;;;25.53;55.24;101277.13;1755342;80;21046;-48
2021/08/31 05:17:40;;;;;;;4.10;3.22;;;;;;;25.57;55.23;101278.63;1752902;80;21166;-49
2021/08/31 05:20:09;;;;;;;8.63;3.55;;;;;;;25.61;55.17;101280.09;1761448;81;21487;-49
2021/08/31 05:22:35;;;;;;;9.83;4.25;;;;;;;25.63;55.10;101282.16;1734121;81;21504;-50
2021/08/31 05:25:03;;;;;;;10.25;4.00;;;;;;;25.67;55.10;101282.29;1747546;81;21104;-49
2021/08/31 05:27:30;;;;;;;5.90;3.52;;;;;;;25.72;54.97;101282.77;1748379;80;21030;-49
2021/08/31 05:29:57;;;;;;;5.00;3.20;;;;;;;25.76;54.87;101281.56;1753347;80;21046;-49
2021/08/31 05:32:24;;;;;;;4.05;3.35;;;;;;;25.80;54.64;101285.70;1722675;81;21046;-49
2021/08/31 05:34:51;;;;;;;52.73;7.28;;;;;;;25.81;53.85;101281.22;1767046;80;21531;-49
2021/08/31 05:37:18;;;;;;;5.53;3.52;;;;;;;25.80;53.77;101284.36;1764368;80;20991;-49
2021/08/31 05:39:44;;;;;;;3.40;3.08;;;;;;;25.80;53.75;101287.53;1770799;80;21522;-49
2021/08/31 05:42:11;;;;;;;4.47;3.62;;;;;;;25.82;53.56;101286.42;1759247;80;21021;-49
2021/08/31 05:44:39;;;;;;;4.85;3.72;;;;;;;25.86;53.60;101291.53;1776397;80;22582;-49
2021/08/31 05:47:06;;;;;;;7.17;3.90;;;;;;;25.88;53.53;101286.94;1749086;80;21483;-48
2021/08/31 05:49:34;;;;;;;16.95;5.50;;;;;;;25.88;53.52;101294.46;1759073;80;21078;-49
2021/08/31 05:52:04;;;;;;;6.60;3.67;;;;;;;25.87;53.36;101295.89;1770026;80;21024;-49
2021/08/31 05:54:31;;;;;;;5.58;3.52;;;;;;;25.90;53.34;101293.00;1762007;80;21120;-48
2021/08/31 05:57:00;;;;;;;6.22;4.40;;;;;;;25.89;53.11;101292.14;1755488;80;21505;-49
2021/08/31 05:59:27;;;;;;;4.75;4.33;;;;;;;25.93;52.66;101295.41;1763580;80;21556;-49
2021/08/31 06:01:53;;;;;;;4.47;4.00;;;;;;;26.04;53.28;101300.78;1748342;81;21051;-49
2021/08/31 06:04:22;;;;;;;5.37;3.87;;;;;;;26.04;53.28;101300.78;1766816;80;21482;-49
2021/08/31 06:06:49;;;;;;;6.37;3.60;;;;;;;26.22;52.84;101303.38;1783872;80;21612;-51
2021/08/31 06:09:16;;;;;;;5.55;3.65;;;;;;;26.42;51.88;101304.84;1755364;80;21027;-50
2021/08/31 06:11:44;;;;;;;6.30;4.00;;;;;;;26.62;51.55;101312.62;1770902;80;20987;-50
2021/08/31 06:14:11;;;;;;;8.48;3.30;;;;;;;26.82;50.98;101309.70;1760790;80;21023;-51
2021/08/31 06:16:38;;;;;;;4.20;3.08;;;;;;;27.04;50.17;101310.98;1740899;80;21039;-50
2021/08/31 06:19:06;;;;;;;6.12;2.55;;;;;;;27.28;49.66;101309.00;1751470;80;21011;-48
2021/08/31 06:21:34;;;;;;;4.15;2.72;;;;;;;27.52;48.75;101308.80;1753736;80;21019;-48
2021/08/31 06:24:01;;;;;;;4.10;3.15;;;;;;;27.70;48.05;101311.30;1745484;80;21522;-48
2021/08/31 06:26:27;;;;;;;4.60;2.50;;;;;;;27.78;47.49;101312.83;1762139;80;21066;-51
2021/08/31 06:28:54;;;;;;;2.70;2.50;;;;;;;27.78;47.31;101319.52;1768713;80;21162;-49
2021/08/31 06:31:22;;;;;;;3.45;2.70;;;;;;;27.72;47.66;101312.02;1757382;80;21110;-50
2021/08/31 06:33:49;;;;;;;2.40;2.20;;;;;;;27.67;47.67;101324.42;1754526;80;22172;-50
2021/08/31 06:36:16;;;;;;;8.78;2.95;;;;;;;27.64;47.84;101326.00;1767606;80;21053;-50
2021/08/31 06:38:43;;;;;;;8.28;3.30;;;;;;;27.58;47.97;101331.01;1755778;80;21046;-51
2021/08/31 06:41:10;;;;;;;4.03;2.40;;;;;;;27.52;48.50;101328.37;1753218;80;21511;-49
2021/08/31 06:43:38;;;;;;;3.87;2.50;;;;;;;27.48;48.35;101328.75;1763671;80;21034;-49
2021/08/31 06:46:05;;;;;;;2.45;2.25;;;;;;;27.42;48.16;101335.94;1756631;80;21515;-49
2021/08/31 06:48:33;;;;;;;4.58;2.75;;;;;;;27.37;48.66;101333.16;1769505;80;21054;-49
2021/08/31 06:50:59;;;;;;;5.25;2.60;;;;;;;27.37;49.01;101337.17;1767835;80;21011;-48
2021/08/31 06:53:26;;;;;;;9.90;2.75;;;;;;;27.36;49.02;101339.50;1769457;80;21015;-49
2021/08/31 06:55:53;;;;;;;4.80;3.10;;;;;;;27.36;49.46;101345.33;1751999;80;21042;-49
2021/08/31 06:58:20;;;;;;;2.67;2.47;;;;;;;27.36;49.54;101344.84;1754716;80;21066;-49
2021/08/31 07:00:46;;;;;;;4.20;2.60;;;;;;;27.35;48.98;101337.78;1756533;80;21502;-49
2021/08/31 07:03:13;;;;;;;3.08;2.77;;;;;;;27.35;48.98;101337.78;1759861;80;21031;-49
2021/08/31 07:05:40;;;;;;;4.10;2.90;;;;;;;27.37;49.45;101342.52;1774022;80;21006;-50
2021/08/31 07:08:09;;;;;;;4.35;2.60;;;;;;;27.37;49.78;101342.52;1783904;80;20995;-50
2021/08/31 07:10:35;;;;;;;8.55;3.08;;;;;;;27.37;49.70;101347.86;1771025;80;21047;-49
2021/08/31 07:13:02;;;;;;;3.10;2.47;;;;;;;27.37;49.42;101346.52;1759401;80;20990;-50
2021/08/31 07:15:29;;;;;;;8.48;3.00;;;;;;;27.36;49.44;101346.18;1734864;80;21470;-49
2021/08/31 07:17:55;;;;;;;3.20;2.55;;;;;;;27.37;49.50;101350.53;1750458;80;21474;-49
2021/08/31 07:20:22;;;;;;;6.62;3.12;;;;;;;27.38;49.63;101344.23;1757049;80;21003;-50
2021/08/31 07:22:49;;;;;;;3.37;2.75;;;;;;;27.39;49.77;101352.59;1726478;81;22284;-49
2021/08/31 07:25:16;;;;;;;5.15;4.00;;;;;;;27.50;49.99;101354.86;1752640;80;21019;-50
2021/08/31 07:27:42;;;;;;;3.20;2.90;;;;;;;27.50;49.99;101354.86;1764202;80;21055;-50
2021/08/31 07:30:11;;;;;;;3.95;3.10;;;;;;;27.59;49.84;101356.78;1772512;80;21002;-50
2021/08/31 07:32:38;;;;;;;2.80;2.60;;;;;;;27.68;49.50;101354.66;1784275;80;22071;-50
2021/08/31 07:35:07;;;;;;;6.17;2.58;;;;;;;27.77;49.29;101348.08;1749204;80;21024;-50
2021/08/31 07:37:33;;;;;;;3.17;2.87;;;;;;;27.84;49.38;101353.77;1768238;80;21501;-50
2021/08/31 07:40:00;;;;;;;4.33;2.67;;;;;;;27.89;49.46;101349.71;1775197;80;21070;-50
2021/08/31 07:42:27;;;;;;;4.75;3.55;;;;;;;27.95;49.23;101345.66;1771379;80;21518;-50
2021/08/31 07:44:54;;;;;;;4.50;2.58;;;;;;;28.00;49.18;101355.52;1754027;80;21053;-49
2021/08/31 07:47:21;;;;;;;4.33;2.98;;;;;;;28.05;48.99;101341.25;1773595;80;21022;-50
2021/08/31 07:49:48;;;;;;;3.33;3.02;;;;;;;28.09;48.75;101342.20;1768471;80;21011;-49
2021/08/31 07:52:14;;;;;;;3.58;3.27;;;;;;;28.12;48.34;101348.64;1757962;80;21193;-49
2021/08/31 07:54:41;;;;;;;2.92;2.52;;;;;;;28.12;48.40;101343.29;1759652;80;21014;-50
2021/08/31 07:57:08;;;;;;;3.20;2.70;;;;;;;28.15;48.39;101340.85;1751149;80;21071;-49
2021/08/31 07:59:36;;;;;;;5.17;2.92;;;;;;;28.14;47.88;101343.15;1768817;80;21003;-50
2021/08/31 08:02:04;;;;;;;3.15;2.58;;;;;;;28.14;47.61;101344.48;1759258;80;21624;-50
2021/08/31 08:04:31;;;;;;;4.10;3.70;;;;;;;28.14;47.54;101341.81;1751404;80;21009;-50
2021/08/31 08:06:58;;;;;;;3.50;2.77;;;;;;;28.14;47.52;101337.80;1750639;80;21047;-49
2021/08/31 08:09:25;;;;;;;4.53;3.50;;;;;;;28.14;47.18;101332.45;1747741;80;21080;-50
2021/08/31 08:11:53;;;;;;;2.98;2.40;;;;;;;28.14;47.29;101335.13;1771642;80;21068;-50
2021/08/31 08:14:20;;;;;;;3.67;3.08;;;;;;;28.13;46.75;101332.11;1764974;80;21102;-50
2021/08/31 08:16:46;;;;;;;3.05;2.62;;;;;;;28.14;46.92;101335.13;1770253;80;20990;-49
2021/08/31 08:19:13;;;;;;;2.40;2.20;;;;;;;28.14;46.64;101332.45;1682551;83;21546;-50
2021/08/31 08:21:40;;;;;;;2.45;2.25;;;;;;;28.16;47.01;101335.84;1725289;81;21109;-49
2021/08/31 08:24:08;;;;;;;2.77;2.58;;;;;;;28.15;46.86;101335.50;1692923;82;21051;-50
2021/08/31 08:26:38;;;;;;;2.12;1.90;;;;;;;28.14;46.72;101334.64;1685675;83;21040;-49
2021/08/31 08:29:05;;;;;;;1.98;1.87;;;;;;;28.15;46.48;101334.98;1716710;82;20984;-49
2021/08/31 08:31:34;;;;;;;2.22;2.10;;;;;;;28.17;46.28;101328.19;1716338;82;21027;-50
2021/08/31 08:34:01;;;;;;;4.83;2.17;;;;;;;28.16;46.40;101331.83;1746371;80;21046;-49
2021/08/31 08:36:28;;;;;;;3.85;2.20;;;;;;;28.16;46.42;101334.02;1765905;80;21029;-49
2021/08/31 08:38:55;;;;;;;11.22;2.70;;;;;;;28.18;46.34;101328.05;1749961;80;21064;-49
2021/08/31 08:41:21;;;;;;;2.45;2.20;;;;;;;28.22;46.13;101331.77;1745301;80;21474;-50
2021/08/31 08:43:50;;;;;;;3.20;2.27;;;;;;;28.23;46.08;101330.33;1751376;80;21029;-50
2021/08/31 08:46:16;;;;;;;8.68;2.83;;;;;;;28.26;45.26;101326.03;1756070;80;21057;-49
2021/08/31 08:48:44;;;;;;;5.40;2.65;;;;;;;28.28;44.91;101328.09;1766468;80;21023;-49
2021/08/31 08:51:11;;;;;;;5.05;2.65;;;;;;;28.32;44.81;101324.64;1745133;80;21067;-49
2021/08/31 08:53:38;;;;;;;5.80;2.50;;;;;;;28.35;44.55;101334.62;1751580;80;21020;-49
2021/08/31 08:56:05;;;;;;;8.28;3.10;;;;;;;28.34;44.48;101326.21;1682499;83;21566;-49
2021/08/31 08:58:32;;;;;;;4.62;2.72;;;;;;;28.34;44.17;101324.87;1723793;82;21081;-49
2021/08/31 09:01:03;;;;;;;3.62;3.33;;;;;;;28.36;43.93;101328.27;1707178;82;21568;-50
2021/08/31 09:03:35;;;;;;;6.95;3.45;;;;;;;28.38;44.31;101330.31;1719161;82;21025;-50
2021/08/31 09:06:17;;;;;;;5.90;3.70;;;;;;;28.40;42.79;101323.00;1647313;86;21090;-50
2021/08/31 09:08:57;;;;;;;4.53;3.58;;;;;;;28.41;42.77;101320.70;1715383;83;21019;-50
2021/08/31 09:11:33;;;;;;;4.53;3.50;;;;;;;28.47;42.84;101317.48;1710846;83;21034;-49
2021/08/31 09:14:23;;;;;;;3.30;3.00;;;;;;;28.50;42.77;101310.50;1666250;84;21352;-49
2021/08/31 09:16:58;;;;;;;3.30;3.00;;;;;;;28.57;42.85;101318.40;1657760;85;21130;-49
2021/08/31 09:19:36;;;;;;;5.85;3.12;;;;;;;28.67;42.68;101323.30;1669586;84;21070;-50
2021/08/31 09:22:22;;;;;;;3.70;3.40;;;;;;;28.74;42.40;101319.11;1611312;88;21079;-50
2021/08/31 09:25:07;;;;;;;4.42;3.05;;;;;;;28.83;42.42;101320.95;1586520;89;21118;-50
2021/08/31 09:27:43;;;;;;;4.00;3.00;;;;;;;28.91;41.90;101317.09;1539493;92;21113;-49
2021/08/31 09:30:19;;;;;;;3.27;2.98;;;;;;;29.01;41.93;101317.61;1510604;94;21093;-49
2021/08/31 09:33:09;;;;;;;2.85;2.55;;;;;;;29.09;41.72;101317.77;1511481;93;21597;-50
2021/08/31 09:35:49;;;;;;;;;;;;;;;29.16;42.54;101316.27;1492076;95;21665;-50
2021/08/31 09:38:21;;;;;;;5.97;5.35;;;;;;;29.25;42.92;101315.42;1484216;95;20431;-50
2021/08/31 09:40:53;;;;;;;3.40;3.10;;;;;;;29.32;43.05;101315.23;1500037;94;21119;-49
2021/08/31 09:43:25;;;;;;;3.45;3.20;;;;;;;29.38;43.32;101320.03;1496417;93;21086;-49
2021/08/31 09:45:55;;;;;;;5.70;4.83;;;;;;;29.42;43.83;101310.72;1500469;94;21129;-50
2021/08/31 09:48:23;;;;;;;5.30;4.17;;;;;;;29.47;43.87;101297.75;1506489;93;21137;-49
2021/08/31 09:50:52;;;;;;;3.83;3.35;;;;;;;29.52;43.80;101299.49;1495553;94;21166;-50
2021/08/31 09:53:24;;;;;;;3.58;3.27;;;;;;;29.58;44.02;101294.90;1492602;94;21602;-49
2021/08/31 09:56:04;;;;;;;5.37;3.10;;;;;;;29.64;44.06;101295.67;1499534;94;21117;-50
2021/08/31 09:58:34;;;;;;;4.83;3.15;;;;;;;29.70;44.14;101297.78;1518458;92;21109;-50
2021/08/31 10:01:01;;;;;;;4.30;3.90;;;;;;;29.75;44.07;101295.56;1480129;95;21155;-50
2021/08/31 10:03:28;;;;;;;7.53;5.45;;;;;;;29.78;44.01;101300.63;1484312;95;21228;-48
2021/08/31 10:05:59;;;;;;;4.03;3.55;;;;;;;29.83;43.67;101287.64;1472901;95;21105;-49
2021/08/31 10:08:28;;;;;;;9.50;6.03;;;;;;;29.84;43.27;101286.67;1480082;95;21715;-49
2021/08/31 10:10:57;;;;;;;4.83;4.10;;;;;;;29.86;43.18;101286.52;1511757;92;21062;-49
2021/08/31 10:13:25;;;;;;;19.73;17.75;;;;;;;29.88;42.85;101280.02;1509736;93;21107;-49
2021/08/31 10:15:55;;;;;;;6.17;5.58;;;;;;;29.92;42.79;101280.08;1538098;92;21041;-49
2021/08/31 10:18:25;;;;;;;5.33;3.70;;;;;;;29.95;42.69;101277.09;1494173;93;21142;-49
2021/08/31 10:21:13;;;;;;;4.00;3.60;;;;;;;29.99;42.35;101273.13;1519392;90;21106;-49
2021/08/31 10:23:45;;;;;;;3.10;2.80;;;;;;;30.01;42.39;101271.14;1560999;90;21130;-49
2021/08/31 10:26:32;;;;;;;5.92;3.00;;;;;;;30.06;42.32;101267.54;1554087;91;21554;-49
2021/08/31 10:29:23;;;;;;;5.03;3.30;;;;;;;30.10;42.35;101270.27;1500762;93;21065;-49
2021/08/31 10:31:57;;;;;;;2.75;2.50;;;;;;;30.13;42.19;101269.97;1516160;93;21185;-48
2021/08/31 10:34:39;;;;;;;3.47;3.17;;;;;;;30.17;41.94;101268.68;1532054;92;21127;-49
2021/08/31 10:37:09;;;;;;;3.50;2.92;;;;;;;30.19;42.02;101269.90;1520791;93;21080;-50
2021/08/31 10:39:54;;;;;;;5.03;3.00;;;;;;;30.22;42.06;101274.95;1498317;95;21088;-49
2021/08/31 10:42:36;;;;;;;3.40;2.80;;;;;;;30.25;41.51;101271.99;1495053;95;21119;-49
2021/08/31 10:45:43;;;;;;;4.42;2.90;;;;;;;30.26;40.96;101271.84;1487051;95;21187;-50
2021/08/31 10:48:27;;;;;;;3.08;2.77;;;;;;;30.27;40.63;101273.55;1471834;96;21178;-50
2021/08/31 10:51:02;;;;;;;3.83;3.10;;;;;;;30.30;40.57;101275.95;1473637;96;21559;-47
2021/08/31 10:53:46;;;;;;;3.12;2.90;;;;;;;30.31;40.27;101276.31;1438493;98;21162;-50
2021/08/31 10:56:27;;;;;;;3.20;2.90;;;;;;;30.32;40.05;101272.62;1473961;96;21202;-50
2021/08/31 10:59:07;;;;;;;3.55;3.25;;;;;;;30.32;40.30;101271.28;1511919;93;21139;-49
2021/08/31 11:01:41;;;;;;;3.37;3.08;;;;;;;30.32;40.57;101271.28;1528051;92;21205;-48
2021/08/31 11:04:29;;;;;;;2.90;2.70;;;;;;;30.32;40.15;101265.91;1538821;92;21120;-51
2021/08/31 11:07:03;;;;;;;3.70;2.70;;;;;;;30.33;39.77;101263.59;1543480;92;21035;-50
2021/08/31 11:09:30;;;;;;;3.40;3.10;;;;;;;30.34;38.98;101262.58;1530559;92;21164;-49
2021/08/31 11:12:08;;;;;;;3.33;3.00;;;;;;;30.35;39.03;101255.38;1534347;92;21047;-50
2021/08/31 11:14:44;;;;;;;4.40;3.25;;;;;;;30.34;39.20;101258.55;1545822;90;21177;-49
2021/08/31 11:17:11;;;;;;;4.25;2.95;;;;;;;30.38;39.43;101259.09;1521268;92;21689;-50
2021/08/31 11:19:38;;;;;;;3.05;2.85;;;;;;;30.38;38.75;101251.89;1511342;94;21131;-51
2021/08/31 11:22:04;;;;;;;2.87;2.58;;;;;;;30.39;38.79;101253.59;1505543;93;21575;-49
2021/08/31 11:24:31;;;;;;;2.85;2.65;;;;;;;30.40;38.90;101249.90;1507893;94;21294;-50
2021/08/31 11:27:01;;;;;;;3.35;2.90;;;;;;;30.24;39.22;101248.32;1624857;87;20993;-49
2021/08/31 11:29:28;;;;;;;2.92;2.72;;;;;;;30.21;39.51;101248.60;1616623;87;21116;-49
2021/08/31 11:32:02;;;;;;;4.05;2.80;;;;;;;30.37;39.43;101250.22;1622050;87;21559;-49